sensor_id;sensor_type;location;lat;lon;timestamp;P1;durP1;ratioP1;P2;durP2;ratioP2
67162;SDS011;54092;53.088;8.850;2023-03-01T00:00:52;16.02;;;7.68;;
67162;SDS011;54092;53.088;8.850;2023-03-01T00:03:18;16.67;;;7.63;;
67162;SDS011;54092;53.088;8.850;2023-03-01T00:05:44;17.98;;;8.07;;
67162;SDS011;54092;53.088;8.850;2023-03-01T00:08:10;14.65;;;6.85;;
67162;SDS011;54092;53.088;8.850;2023-03-01T00:10:36;18.65;;;8.15;;
67162;SDS011;54092;53.088;8.850;2023-03-01T00:13:02;15.68;;;7.55;;
67162;SDS011;54092;53.088;8.850;2023-03-01T00:15:27;15.27;;;7.10;;
67162;SDS011;54092;53.088;8.850;2023-03-01T00:17:53;17.70;;;7.35;;
67162;SDS011;54092;53.088;8.850;2023-03-01T00:20:18;15.65;;;7.32;;
67162;SDS011;54092;53.088;8.850;2023-03-01T00:22:44;18.10;;;8.15;;
67162;SDS011;54092;53.088;8.850;2023-03-01T00:25:09;15.32;;;6.70;;
67162;SDS011;54092;53.088;8.850;2023-03-01T00:27:35;13.93;;;6.80;;
67162;SDS011;54092;53.088;8.850;2023-03-01T00:30:00;19.13;;;7.85;;
67162;SDS011;54092;53.088;8.850;2023-03-01T00:32:26;17.75;;;7.43;;
67162;SDS011;54092;53.088;8.850;2023-03-01T00:34:51;14.10;;;6.85;;
67162;SDS011;54092;53.088;8.850;2023-03-01T00:37:24;17.65;;;7.47;;
67162;SDS011;54092;53.088;8.850;2023-03-01T00:39:49;13.00;;;6.22;;
67162;SDS011;54092;53.088;8.850;2023-03-01T00:42:15;17.45;;;7.43;;
67162;SDS011;54092;53.088;8.850;2023-03-01T00:44:41;12.85;;;6.78;;
67162;SDS011;54092;53.088;8.850;2023-03-01T00:47:07;13.52;;;6.80;;
67162;SDS011;54092;53.088;8.850;2023-03-01T00:49:33;13.32;;;6.53;;
67162;SDS011;54092;53.088;8.850;2023-03-01T00:51:59;19.98;;;7.40;;
67162;SDS011;54092;53.088;8.850;2023-03-01T00:54:24;16.35;;;6.95;;
67162;SDS011;54092;53.088;8.850;2023-03-01T00:56:50;18.55;;;7.63;;
67162;SDS011;54092;53.088;8.850;2023-03-01T00:59:15;12.93;;;7.10;;
67162;SDS011;54092;53.088;8.850;2023-03-01T01:01:41;13.48;;;6.80;;
67162;SDS011;54092;53.088;8.850;2023-03-01T01:04:08;14.18;;;6.30;;
67162;SDS011;54092;53.088;8.850;2023-03-01T01:06:36;14.27;;;7.15;;
67162;SDS011;54092;53.088;8.850;2023-03-01T01:09:05;15.23;;;7.20;;
67162;SDS011;54092;53.088;8.850;2023-03-01T01:11:31;13.93;;;6.35;;
67162;SDS011;54092;53.088;8.850;2023-03-01T01:13:58;16.42;;;7.32;;
67162;SDS011;54092;53.088;8.850;2023-03-01T01:16:24;17.85;;;6.60;;
67162;SDS011;54092;53.088;8.850;2023-03-01T01:18:52;13.23;;;7.22;;
67162;SDS011;54092;53.088;8.850;2023-03-01T01:21:19;13.02;;;6.78;;
67162;SDS011;54092;53.088;8.850;2023-03-01T01:23:46;13.63;;;6.63;;
67162;SDS011;54092;53.088;8.850;2023-03-01T01:26:13;13.43;;;6.45;;
67162;SDS011;54092;53.088;8.850;2023-03-01T01:28:43;16.58;;;6.97;;
67162;SDS011;54092;53.088;8.850;2023-03-01T01:31:09;15.23;;;7.60;;
67162;SDS011;54092;53.088;8.850;2023-03-01T01:33:35;16.92;;;7.38;;
67162;SDS011;54092;53.088;8.850;2023-03-01T01:36:02;22.58;;;7.85;;
67162;SDS011;54092;53.088;8.850;2023-03-01T01:38:28;14.90;;;6.38;;
67162;SDS011;54092;53.088;8.850;2023-03-01T01:40:54;13.50;;;7.25;;
67162;SDS011;54092;53.088;8.850;2023-03-01T01:43:24;16.50;;;7.35;;
67162;SDS011;54092;53.088;8.850;2023-03-01T01:46:02;14.30;;;6.90;;
67162;SDS011;54092;53.088;8.850;2023-03-01T01:48:39;12.65;;;6.40;;
67162;SDS011;54092;53.088;8.850;2023-03-01T01:51:13;15.65;;;7.00;;
67162;SDS011;54092;53.088;8.850;2023-03-01T01:53:44;12.13;;;6.25;;
67162;SDS011;54092;53.088;8.850;2023-03-01T01:56:13;18.17;;;6.88;;
67162;SDS011;54092;53.088;8.850;2023-03-01T01:58:40;13.02;;;6.78;;
67162;SDS011;54092;53.088;8.850;2023-03-01T02:01:08;13.98;;;7.15;;
67162;SDS011;54092;53.088;8.850;2023-03-01T02:03:35;15.27;;;7.18;;
67162;SDS011;54092;53.088;8.850;2023-03-01T02:06:10;13.77;;;6.93;;
67162;SDS011;54092;53.088;8.850;2023-03-01T02:08:57;17.07;;;7.80;;
67162;SDS011;54092;53.088;8.850;2023-03-01T02:11:31;13.20;;;7.28;;
67162;SDS011;54092;53.088;8.850;2023-03-01T02:13:57;15.07;;;6.57;;
67162;SDS011;54092;53.088;8.850;2023-03-01T02:16:23;14.35;;;7.32;;
67162;SDS011;54092;53.088;8.850;2023-03-01T02:18:51;15.13;;;7.15;;
67162;SDS011;54092;53.088;8.850;2023-03-01T02:24:03;14.90;;;7.28;;
67162;SDS011;54092;53.088;8.850;2023-03-01T02:26:45;17.60;;;6.90;;
67162;SDS011;54092;53.088;8.850;2023-03-01T02:29:14;13.85;;;6.65;;
67162;SDS011;54092;53.088;8.850;2023-03-01T02:31:39;17.15;;;7.70;;
67162;SDS011;54092;53.088;8.850;2023-03-01T02:34:09;19.05;;;8.27;;
67162;SDS011;54092;53.088;8.850;2023-03-01T02:36:45;16.10;;;7.75;;
67162;SDS011;54092;53.088;8.850;2023-03-01T02:39:14;14.60;;;7.43;;
67162;SDS011;54092;53.088;8.850;2023-03-01T02:41:53;17.52;;;7.72;;
67162;SDS011;54092;53.088;8.850;2023-03-01T02:44:21;15.55;;;7.13;;
67162;SDS011;54092;53.088;8.850;2023-03-01T02:46:51;15.13;;;7.43;;
67162;SDS011;54092;53.088;8.850;2023-03-01T02:49:29;12.30;;;7.32;;
67162;SDS011;54092;53.088;8.850;2023-03-01T02:57:33;20.27;;;8.05;;
67162;SDS011;54092;53.088;8.850;2023-03-01T03:00:03;18.10;;;7.25;;
67162;SDS011;54092;53.088;8.850;2023-03-01T03:02:32;15.00;;;7.75;;
67162;SDS011;54092;53.088;8.850;2023-03-01T03:07:33;11.80;;;6.90;;
67162;SDS011;54092;53.088;8.850;2023-03-01T03:10:04;14.88;;;6.85;;
67162;SDS011;54092;53.088;8.850;2023-03-01T03:12:33;11.35;;;6.47;;
67162;SDS011;54092;53.088;8.850;2023-03-01T03:14:58;11.80;;;6.38;;
67162;SDS011;54092;53.088;8.850;2023-03-01T03:17:24;15.27;;;7.25;;
67162;SDS011;54092;53.088;8.850;2023-03-01T03:19:49;15.40;;;7.28;;
67162;SDS011;54092;53.088;8.850;2023-03-01T03:22:15;14.20;;;6.90;;
67162;SDS011;54092;53.088;8.850;2023-03-01T03:24:40;15.50;;;7.45;;
67162;SDS011;54092;53.088;8.850;2023-03-01T03:27:06;19.35;;;8.07;;
67162;SDS011;54092;53.088;8.850;2023-03-01T03:29:32;14.95;;;6.57;;
67162;SDS011;54092;53.088;8.850;2023-03-01T03:31:58;17.20;;;8.13;;
67162;SDS011;54092;53.088;8.850;2023-03-01T03:34:24;16.92;;;8.02;;
67162;SDS011;54092;53.088;8.850;2023-03-01T03:36:54;16.05;;;7.30;;
67162;SDS011;54092;53.088;8.850;2023-03-01T03:39:24;16.67;;;7.68;;
67162;SDS011;54092;53.088;8.850;2023-03-01T03:41:51;19.20;;;7.68;;
67162;SDS011;54092;53.088;8.850;2023-03-01T03:44:17;17.30;;;8.00;;
67162;SDS011;54092;53.088;8.850;2023-03-01T03:46:43;15.90;;;7.60;;
67162;SDS011;54092;53.088;8.850;2023-03-01T03:49:08;16.35;;;7.78;;
67162;SDS011;54092;53.088;8.850;2023-03-01T03:51:34;15.15;;;7.78;;
67162;SDS011;54092;53.088;8.850;2023-03-01T03:53:59;14.18;;;6.95;;
67162;SDS011;54092;53.088;8.850;2023-03-01T03:56:25;14.98;;;7.60;;
67162;SDS011;54092;53.088;8.850;2023-03-01T03:58:50;13.93;;;6.97;;
67162;SDS011;54092;53.088;8.850;2023-03-01T04:01:19;18.02;;;8.55;;
67162;SDS011;54092;53.088;8.850;2023-03-01T04:03:45;17.02;;;8.50;;
67162;SDS011;54092;53.088;8.850;2023-03-01T04:06:12;18.73;;;8.27;;
67162;SDS011;54092;53.088;8.850;2023-03-01T04:08:38;15.13;;;7.43;;
67162;SDS011;54092;53.088;8.850;2023-03-01T04:11:04;17.65;;;8.25;;
67162;SDS011;54092;53.088;8.850;2023-03-01T04:13:48;17.10;;;8.10;;
67162;SDS011;54092;53.088;8.850;2023-03-01T04:16:14;18.98;;;8.35;;
67162;SDS011;54092;53.088;8.850;2023-03-01T04:18:40;15.00;;;7.82;;
67162;SDS011;54092;53.088;8.850;2023-03-01T04:21:05;15.18;;;7.32;;
67162;SDS011;54092;53.088;8.850;2023-03-01T04:23:31;11.85;;;6.60;;
67162;SDS011;54092;53.088;8.850;2023-03-01T04:25:57;18.40;;;7.95;;
67162;SDS011;54092;53.088;8.850;2023-03-01T04:28:24;12.68;;;7.80;;
67162;SDS011;54092;53.088;8.850;2023-03-01T04:30:52;16.13;;;8.05;;
67162;SDS011;54092;53.088;8.850;2023-03-01T04:33:18;18.42;;;8.20;;
67162;SDS011;54092;53.088;8.850;2023-03-01T04:35:44;12.90;;;7.22;;
67162;SDS011;54092;53.088;8.850;2023-03-01T04:38:10;17.65;;;8.05;;
67162;SDS011;54092;53.088;8.850;2023-03-01T04:40:36;18.40;;;8.25;;
67162;SDS011;54092;53.088;8.850;2023-03-01T04:43:02;13.50;;;7.50;;
67162;SDS011;54092;53.088;8.850;2023-03-01T04:45:28;17.42;;;8.13;;
67162;SDS011;54092;53.088;8.850;2023-03-01T04:47:53;15.52;;;7.45;;
67162;SDS011;54092;53.088;8.850;2023-03-01T04:50:19;17.63;;;7.85;;
67162;SDS011;54092;53.088;8.850;2023-03-01T04:52:46;16.38;;;7.45;;
67162;SDS011;54092;53.088;8.850;2023-03-01T04:55:12;16.25;;;7.10;;
67162;SDS011;54092;53.088;8.850;2023-03-01T04:57:38;17.50;;;8.15;;
67162;SDS011;54092;53.088;8.850;2023-03-01T05:00:04;16.90;;;8.05;;
67162;SDS011;54092;53.088;8.850;2023-03-01T05:02:45;15.75;;;7.63;;
67162;SDS011;54092;53.088;8.850;2023-03-01T05:05:32;15.43;;;7.97;;
67162;SDS011;54092;53.088;8.850;2023-03-01T05:08:01;14.90;;;7.55;;
67162;SDS011;54092;53.088;8.850;2023-03-01T05:10:28;18.17;;;8.40;;
67162;SDS011;54092;53.088;8.850;2023-03-01T05:12:55;15.30;;;7.90;;
67162;SDS011;54092;53.088;8.850;2023-03-01T05:15:22;18.45;;;8.50;;
67162;SDS011;54092;53.088;8.850;2023-03-01T05:17:50;18.77;;;9.18;;
67162;SDS011;54092;53.088;8.850;2023-03-01T05:20:17;13.68;;;7.35;;
67162;SDS011;54092;53.088;8.850;2023-03-01T05:22:43;16.15;;;8.20;;
67162;SDS011;54092;53.088;8.850;2023-03-01T05:25:08;16.48;;;7.65;;
67162;SDS011;54092;53.088;8.850;2023-03-01T05:27:34;15.10;;;8.05;;
67162;SDS011;54092;53.088;8.850;2023-03-01T05:30:01;19.20;;;8.55;;
67162;SDS011;54092;53.088;8.850;2023-03-01T05:32:38;17.65;;;8.52;;
67162;SDS011;54092;53.088;8.850;2023-03-01T05:35:08;16.00;;;7.80;;
67162;SDS011;54092;53.088;8.850;2023-03-01T05:37:38;14.95;;;6.78;;
67162;SDS011;54092;53.088;8.850;2023-03-01T05:40:08;15.98;;;8.23;;
67162;SDS011;54092;53.088;8.850;2023-03-01T05:42:41;16.48;;;8.32;;
67162;SDS011;54092;53.088;8.850;2023-03-01T05:45:08;14.82;;;7.20;;
67162;SDS011;54092;53.088;8.850;2023-03-01T05:47:34;14.10;;;7.90;;
67162;SDS011;54092;53.088;8.850;2023-03-01T05:50:00;14.27;;;7.60;;
67162;SDS011;54092;53.088;8.850;2023-03-01T05:52:26;17.05;;;8.77;;
67162;SDS011;54092;53.088;8.850;2023-03-01T05:54:51;19.20;;;8.10;;
67162;SDS011;54092;53.088;8.850;2023-03-01T05:57:17;17.00;;;9.05;;
67162;SDS011;54092;53.088;8.850;2023-03-01T05:59:42;16.60;;;8.68;;
67162;SDS011;54092;53.088;8.850;2023-03-01T06:02:08;18.00;;;8.75;;
67162;SDS011;54092;53.088;8.850;2023-03-01T06:04:33;14.05;;;7.15;;
67162;SDS011;54092;53.088;8.850;2023-03-01T06:06:59;16.10;;;8.32;;
67162;SDS011;54092;53.088;8.850;2023-03-01T06:09:24;17.23;;;8.15;;
67162;SDS011;54092;53.088;8.850;2023-03-01T06:11:50;16.40;;;8.13;;
67162;SDS011;54092;53.088;8.850;2023-03-01T06:14:16;15.52;;;7.97;;
67162;SDS011;54092;53.088;8.850;2023-03-01T06:16:41;17.65;;;7.85;;
67162;SDS011;54092;53.088;8.850;2023-03-01T06:19:07;18.00;;;8.07;;
67162;SDS011;54092;53.088;8.850;2023-03-01T06:21:32;14.63;;;7.78;;
67162;SDS011;54092;53.088;8.850;2023-03-01T06:23:58;18.20;;;8.10;;
67162;SDS011;54092;53.088;8.850;2023-03-01T06:26:23;18.88;;;7.80;;
67162;SDS011;54092;53.088;8.850;2023-03-01T06:28:49;17.25;;;8.18;;
67162;SDS011;54092;53.088;8.850;2023-03-01T06:31:14;16.90;;;8.15;;
67162;SDS011;54092;53.088;8.850;2023-03-01T06:33:40;17.92;;;8.93;;
67162;SDS011;54092;53.088;8.850;2023-03-01T06:36:06;17.15;;;8.23;;
67162;SDS011;54092;53.088;8.850;2023-03-01T06:38:32;17.20;;;8.70;;
67162;SDS011;54092;53.088;8.850;2023-03-01T06:40:57;17.83;;;7.78;;
67162;SDS011;54092;53.088;8.850;2023-03-01T06:43:23;17.25;;;9.05;;
67162;SDS011;54092;53.088;8.850;2023-03-01T06:45:49;16.30;;;8.45;;
67162;SDS011;54092;53.088;8.850;2023-03-01T06:48:15;16.65;;;8.77;;
67162;SDS011;54092;53.088;8.850;2023-03-01T06:50:40;16.98;;;8.48;;
67162;SDS011;54092;53.088;8.850;2023-03-01T06:53:06;16.38;;;8.80;;
67162;SDS011;54092;53.088;8.850;2023-03-01T06:55:32;17.55;;;8.80;;
67162;SDS011;54092;53.088;8.850;2023-03-01T06:57:58;20.80;;;10.75;;
67162;SDS011;54092;53.088;8.850;2023-03-01T07:00:25;18.50;;;9.35;;
67162;SDS011;54092;53.088;8.850;2023-03-01T07:02:51;21.90;;;9.82;;
67162;SDS011;54092;53.088;8.850;2023-03-01T07:05:16;20.08;;;9.48;;
67162;SDS011;54092;53.088;8.850;2023-03-01T07:07:42;19.48;;;9.73;;
67162;SDS011;54092;53.088;8.850;2023-03-01T07:10:08;20.98;;;9.82;;
67162;SDS011;54092;53.088;8.850;2023-03-01T07:12:34;21.20;;;9.63;;
67162;SDS011;54092;53.088;8.850;2023-03-01T07:15:00;23.83;;;9.40;;
67162;SDS011;54092;53.088;8.850;2023-03-01T07:17:25;19.88;;;8.65;;
67162;SDS011;54092;53.088;8.850;2023-03-01T07:19:50;18.42;;;9.30;;
67162;SDS011;54092;53.088;8.850;2023-03-01T07:22:16;19.80;;;9.57;;
67162;SDS011;54092;53.088;8.850;2023-03-01T07:24:42;16.77;;;9.45;;
67162;SDS011;54092;53.088;8.850;2023-03-01T07:27:08;23.13;;;9.60;;
67162;SDS011;54092;53.088;8.850;2023-03-01T07:29:34;19.52;;;9.30;;
67162;SDS011;54092;53.088;8.850;2023-03-01T07:32:01;19.27;;;9.25;;
67162;SDS011;54092;53.088;8.850;2023-03-01T07:34:27;19.20;;;9.70;;
67162;SDS011;54092;53.088;8.850;2023-03-01T07:36:53;18.88;;;9.30;;
67162;SDS011;54092;53.088;8.850;2023-03-01T07:39:18;17.48;;;8.65;;
67162;SDS011;54092;53.088;8.850;2023-03-01T07:41:44;23.15;;;10.02;;
67162;SDS011;54092;53.088;8.850;2023-03-01T07:44:09;20.60;;;9.98;;
67162;SDS011;54092;53.088;8.850;2023-03-01T07:46:35;20.13;;;9.82;;
67162;SDS011;54092;53.088;8.850;2023-03-01T07:49:01;18.45;;;9.77;;
67162;SDS011;54092;53.088;8.850;2023-03-01T07:51:26;20.73;;;9.50;;
67162;SDS011;54092;53.088;8.850;2023-03-01T07:53:52;21.10;;;10.55;;
67162;SDS011;54092;53.088;8.850;2023-03-01T07:56:17;19.90;;;9.75;;
67162;SDS011;54092;53.088;8.850;2023-03-01T07:58:44;21.05;;;10.13;;
67162;SDS011;54092;53.088;8.850;2023-03-01T08:01:11;22.75;;;10.70;;
67162;SDS011;54092;53.088;8.850;2023-03-01T08:03:39;23.83;;;11.20;;
67162;SDS011;54092;53.088;8.850;2023-03-01T08:06:06;17.27;;;9.43;;
67162;SDS011;54092;53.088;8.850;2023-03-01T08:08:33;23.75;;;10.15;;
67162;SDS011;54092;53.088;8.850;2023-03-01T08:11:00;19.42;;;9.95;;
67162;SDS011;54092;53.088;8.850;2023-03-01T08:13:26;22.35;;;12.00;;
67162;SDS011;54092;53.088;8.850;2023-03-01T08:15:52;22.30;;;10.73;;
67162;SDS011;54092;53.088;8.850;2023-03-01T08:18:19;21.75;;;9.75;;
67162;SDS011;54092;53.088;8.850;2023-03-01T08:20:46;20.23;;;10.07;;
67162;SDS011;54092;53.088;8.850;2023-03-01T08:23:12;21.20;;;10.93;;
67162;SDS011;54092;53.088;8.850;2023-03-01T08:25:37;25.35;;;11.00;;
67162;SDS011;54092;53.088;8.850;2023-03-01T08:28:03;20.35;;;10.60;;
67162;SDS011;54092;53.088;8.850;2023-03-01T08:30:29;19.50;;;10.65;;
67162;SDS011;54092;53.088;8.850;2023-03-01T08:32:55;21.20;;;11.00;;
67162;SDS011;54092;53.088;8.850;2023-03-01T08:35:20;20.98;;;11.52;;
67162;SDS011;54092;53.088;8.850;2023-03-01T08:37:46;20.65;;;10.75;;
67162;SDS011;54092;53.088;8.850;2023-03-01T08:40:12;16.77;;;9.60;;
67162;SDS011;54092;53.088;8.850;2023-03-01T08:42:38;21.48;;;10.70;;
67162;SDS011;54092;53.088;8.850;2023-03-01T08:45:04;18.60;;;9.77;;
67162;SDS011;54092;53.088;8.850;2023-03-01T08:47:30;17.65;;;9.13;;
67162;SDS011;54092;53.088;8.850;2023-03-01T08:49:58;18.27;;;9.25;;
67162;SDS011;54092;53.088;8.850;2023-03-01T08:52:24;18.33;;;8.57;;
67162;SDS011;54092;53.088;8.850;2023-03-01T08:54:49;15.02;;;8.45;;
67162;SDS011;54092;53.088;8.850;2023-03-01T08:57:15;18.10;;;9.50;;
67162;SDS011;54092;53.088;8.850;2023-03-01T08:59:41;14.90;;;8.43;;
67162;SDS011;54092;53.088;8.850;2023-03-01T09:02:10;18.27;;;9.55;;
67162;SDS011;54092;53.088;8.850;2023-03-01T09:04:38;16.05;;;7.85;;
67162;SDS011;54092;53.088;8.850;2023-03-01T09:07:03;17.15;;;8.90;;
67162;SDS011;54092;53.088;8.850;2023-03-01T09:09:29;16.80;;;9.00;;
67162;SDS011;54092;53.088;8.850;2023-03-01T09:11:55;18.92;;;8.07;;
67162;SDS011;54092;53.088;8.850;2023-03-01T09:14:20;12.07;;;6.75;;
67162;SDS011;54092;53.088;8.850;2023-03-01T09:16:46;12.50;;;7.70;;
67162;SDS011;54092;53.088;8.850;2023-03-01T09:19:11;19.52;;;8.15;;
67162;SDS011;54092;53.088;8.850;2023-03-01T09:21:37;14.35;;;8.25;;
67162;SDS011;54092;53.088;8.850;2023-03-01T09:24:03;11.57;;;7.03;;
67162;SDS011;54092;53.088;8.850;2023-03-01T09:26:29;13.27;;;6.10;;
67162;SDS011;54092;53.088;8.850;2023-03-01T09:28:55;10.65;;;5.63;;
67162;SDS011;54092;53.088;8.850;2023-03-01T09:31:21;11.63;;;6.15;;
67162;SDS011;54092;53.088;8.850;2023-03-01T09:33:48;11.13;;;7.10;;
67162;SDS011;54092;53.088;8.850;2023-03-01T09:36:16;14.50;;;7.50;;
67162;SDS011;54092;53.088;8.850;2023-03-01T09:38:44;10.98;;;7.35;;
67162;SDS011;54092;53.088;8.850;2023-03-01T09:41:11;12.93;;;7.13;;
67162;SDS011;54092;53.088;8.850;2023-03-01T09:43:44;16.77;;;7.85;;
67162;SDS011;54092;53.088;8.850;2023-03-01T09:46:13;12.95;;;6.65;;
67162;SDS011;54092;53.088;8.850;2023-03-01T09:48:43;11.57;;;5.93;;
67162;SDS011;54092;53.088;8.850;2023-03-01T09:51:17;7.60;;;4.38;;
67162;SDS011;54092;53.088;8.850;2023-03-01T09:53:47;9.65;;;3.35;;
67162;SDS011;54092;53.088;8.850;2023-03-01T10:01:35;7.57;;;3.50;;
67162;SDS011;54092;53.088;8.850;2023-03-01T10:09:51;7.97;;;3.95;;
67162;SDS011;54092;53.088;8.850;2023-03-01T10:12:19;8.52;;;4.20;;
67162;SDS011;54092;53.088;8.850;2023-03-01T10:14:59;9.77;;;4.40;;
67162;SDS011;54092;53.088;8.850;2023-03-01T10:17:32;8.43;;;4.80;;
67162;SDS011;54092;53.088;8.850;2023-03-01T10:22:50;7.95;;;4.28;;
67162;SDS011;54092;53.088;8.850;2023-03-01T10:25:27;7.40;;;4.10;;
67162;SDS011;54092;53.088;8.850;2023-03-01T10:28:40;6.80;;;3.90;;
67162;SDS011;54092;53.088;8.850;2023-03-01T10:30:56;9.70;;;4.72;;
67162;SDS011;54092;53.088;8.850;2023-03-01T10:33:24;9.80;;;5.10;;
67162;SDS011;54092;53.088;8.850;2023-03-01T10:35:53;9.13;;;5.00;;
67162;SDS011;54092;53.088;8.850;2023-03-01T10:38:19;9.85;;;6.60;;
67162;SDS011;54092;53.088;8.850;2023-03-01T10:40:53;13.52;;;6.80;;
67162;SDS011;54092;53.088;8.850;2023-03-01T10:43:24;11.55;;;7.10;;
67162;SDS011;54092;53.088;8.850;2023-03-01T10:45:51;11.95;;;6.78;;
67162;SDS011;54092;53.088;8.850;2023-03-01T10:48:20;10.20;;;6.18;;
67162;SDS011;54092;53.088;8.850;2023-03-01T10:53:23;10.38;;;6.63;;
67162;SDS011;54092;53.088;8.850;2023-03-01T10:58:38;11.75;;;6.55;;
67162;SDS011;54092;53.088;8.850;2023-03-01T11:03:40;12.02;;;6.80;;
67162;SDS011;54092;53.088;8.850;2023-03-01T11:06:19;11.88;;;7.28;;
67162;SDS011;54092;53.088;8.850;2023-03-01T11:08:47;10.50;;;6.75;;
67162;SDS011;54092;53.088;8.850;2023-03-01T11:11:17;14.88;;;8.45;;
67162;SDS011;54092;53.088;8.850;2023-03-01T11:16:22;14.35;;;8.02;;
67162;SDS011;54092;53.088;8.850;2023-03-01T11:19:01;13.65;;;7.97;;
67162;SDS011;54092;53.088;8.850;2023-03-01T11:21:36;13.43;;;8.00;;
67162;SDS011;54092;53.088;8.850;2023-03-01T11:24:10;13.95;;;8.02;;
67162;SDS011;54092;53.088;8.850;2023-03-01T11:29:09;14.13;;;7.75;;
67162;SDS011;54092;53.088;8.850;2023-03-01T11:31:57;28.70;;;8.77;;
67162;SDS011;54092;53.088;8.850;2023-03-01T11:34:34;12.50;;;8.18;;
67162;SDS011;54092;53.088;8.850;2023-03-01T11:37:09;15.25;;;7.85;;
67162;SDS011;54092;53.088;8.850;2023-03-01T11:39:56;13.32;;;7.97;;
67162;SDS011;54092;53.088;8.850;2023-03-01T11:42:30;12.82;;;7.88;;
67162;SDS011;54092;53.088;8.850;2023-03-01T11:45:11;13.23;;;8.27;;
67162;SDS011;54092;53.088;8.850;2023-03-01T11:50:12;13.27;;;8.45;;
67162;SDS011;54092;53.088;8.850;2023-03-01T11:52:48;14.45;;;8.27;;
67162;SDS011;54092;53.088;8.850;2023-03-01T11:58:08;13.40;;;8.40;;
67162;SDS011;54092;53.088;8.850;2023-03-01T12:01:07;12.80;;;7.63;;
67162;SDS011;54092;53.088;8.850;2023-03-01T12:04:07;11.43;;;7.78;;
67162;SDS011;54092;53.088;8.850;2023-03-01T12:06:55;11.90;;;7.43;;
67162;SDS011;54092;53.088;8.850;2023-03-01T12:15:06;11.85;;;7.10;;
67162;SDS011;54092;53.088;8.850;2023-03-01T12:18:05;15.52;;;8.15;;
67162;SDS011;54092;53.088;8.850;2023-03-01T12:20:59;13.63;;;7.97;;
67162;SDS011;54092;53.088;8.850;2023-03-01T12:23:44;12.35;;;7.78;;
67162;SDS011;54092;53.088;8.850;2023-03-01T12:26:31;17.05;;;7.50;;
67162;SDS011;54092;53.088;8.850;2023-03-01T12:32:03;12.73;;;7.47;;
67162;SDS011;54092;53.088;8.850;2023-03-01T12:34:55;13.20;;;8.35;;
67162;SDS011;54092;53.088;8.850;2023-03-01T12:37:52;12.38;;;7.35;;
67162;SDS011;54092;53.088;8.850;2023-03-01T12:43:43;12.95;;;7.35;;
67162;SDS011;54092;53.088;8.850;2023-03-01T12:49:13;12.35;;;7.10;;
67162;SDS011;54092;53.088;8.850;2023-03-01T12:52:11;13.57;;;7.88;;
67162;SDS011;54092;53.088;8.850;2023-03-01T12:54:46;13.23;;;7.85;;
67162;SDS011;54092;53.088;8.850;2023-03-01T13:03:12;13.50;;;7.07;;
67162;SDS011;54092;53.088;8.850;2023-03-01T13:06:00;15.70;;;7.65;;
67162;SDS011;54092;53.088;8.850;2023-03-01T13:08:44;15.32;;;7.82;;
67162;SDS011;54092;53.088;8.850;2023-03-01T13:11:18;10.60;;;6.97;;
67162;SDS011;54092;53.088;8.850;2023-03-01T13:13:46;14.15;;;8.13;;
67162;SDS011;54092;53.088;8.850;2023-03-01T13:19:08;11.73;;;7.32;;
67162;SDS011;54092;53.088;8.850;2023-03-01T13:21:40;14.98;;;6.90;;
67162;SDS011;54092;53.088;8.850;2023-03-01T13:24:23;12.73;;;6.72;;
67162;SDS011;54092;53.088;8.850;2023-03-01T13:32:21;12.20;;;6.90;;
67162;SDS011;54092;53.088;8.850;2023-03-01T13:34:48;11.25;;;7.25;;
67162;SDS011;54092;53.088;8.850;2023-03-01T13:37:19;12.57;;;7.55;;
67162;SDS011;54092;53.088;8.850;2023-03-01T13:39:54;13.27;;;7.30;;
67162;SDS011;54092;53.088;8.850;2023-03-01T13:42:33;11.98;;;6.90;;
67162;SDS011;54092;53.088;8.850;2023-03-01T13:45:05;12.75;;;7.55;;
67162;SDS011;54092;53.088;8.850;2023-03-01T13:47:56;15.50;;;8.35;;
67162;SDS011;54092;53.088;8.850;2023-03-01T13:50:32;13.20;;;7.72;;
67162;SDS011;54092;53.088;8.850;2023-03-01T13:53:03;12.68;;;7.30;;
67162;SDS011;54092;53.088;8.850;2023-03-01T13:58:15;13.75;;;7.20;;
67162;SDS011;54092;53.088;8.850;2023-03-01T14:00:55;15.05;;;7.38;;
67162;SDS011;54092;53.088;8.850;2023-03-01T14:03:25;13.18;;;8.15;;
67162;SDS011;54092;53.088;8.850;2023-03-01T14:08:26;11.90;;;7.45;;
67162;SDS011;54092;53.088;8.850;2023-03-01T14:10:59;13.95;;;7.28;;
67162;SDS011;54092;53.088;8.850;2023-03-01T14:13:51;16.73;;;8.23;;
67162;SDS011;54092;53.088;8.850;2023-03-01T14:16:46;18.63;;;8.82;;
67162;SDS011;54092;53.088;8.850;2023-03-01T14:19:35;14.77;;;7.55;;
67162;SDS011;54092;53.088;8.850;2023-03-01T14:24:57;14.32;;;8.40;;
67162;SDS011;54092;53.088;8.850;2023-03-01T14:27:35;13.57;;;7.22;;
67162;SDS011;54092;53.088;8.850;2023-03-01T14:30:10;15.35;;;7.95;;
67162;SDS011;54092;53.088;8.850;2023-03-01T14:32:39;15.77;;;8.45;;
67162;SDS011;54092;53.088;8.850;2023-03-01T14:35:21;14.32;;;7.88;;
67162;SDS011;54092;53.088;8.850;2023-03-01T14:37:52;15.63;;;8.23;;
67162;SDS011;54092;53.088;8.850;2023-03-01T14:40:36;17.65;;;8.32;;
67162;SDS011;54092;53.088;8.850;2023-03-01T14:43:07;15.05;;;8.43;;
67162;SDS011;54092;53.088;8.850;2023-03-01T14:45:35;14.77;;;8.70;;
67162;SDS011;54092;53.088;8.850;2023-03-01T14:48:02;17.00;;;8.43;;
67162;SDS011;54092;53.088;8.850;2023-03-01T14:50:30;17.55;;;8.35;;
67162;SDS011;54092;53.088;8.850;2023-03-01T14:53:04;14.68;;;8.63;;
67162;SDS011;54092;53.088;8.850;2023-03-01T14:55:33;19.63;;;8.52;;
67162;SDS011;54092;53.088;8.850;2023-03-01T14:58:09;20.42;;;8.73;;
67162;SDS011;54092;53.088;8.850;2023-03-01T15:00:37;15.88;;;8.18;;
67162;SDS011;54092;53.088;8.850;2023-03-01T15:03:17;16.02;;;7.53;;
67162;SDS011;54092;53.088;8.850;2023-03-01T15:05:56;19.80;;;7.55;;
67162;SDS011;54092;53.088;8.850;2023-03-01T15:08:24;18.45;;;8.27;;
67162;SDS011;54092;53.088;8.850;2023-03-01T15:10:55;16.48;;;8.10;;
67162;SDS011;54092;53.088;8.850;2023-03-01T15:13:43;14.18;;;8.05;;
67162;SDS011;54092;53.088;8.850;2023-03-01T15:16:30;19.05;;;8.32;;
67162;SDS011;54092;53.088;8.850;2023-03-01T15:18:58;18.13;;;8.75;;
67162;SDS011;54092;53.088;8.850;2023-03-01T15:21:27;18.83;;;9.63;;
67162;SDS011;54092;53.088;8.850;2023-03-01T15:24:05;18.35;;;8.93;;
67162;SDS011;54092;53.088;8.850;2023-03-01T15:26:44;19.67;;;9.75;;
67162;SDS011;54092;53.088;8.850;2023-03-01T15:29:28;18.17;;;9.52;;
67162;SDS011;54092;53.088;8.850;2023-03-01T15:31:57;22.00;;;10.33;;
67162;SDS011;54092;53.088;8.850;2023-03-01T15:37:00;19.20;;;10.10;;
67162;SDS011;54092;53.088;8.850;2023-03-01T15:39:42;20.00;;;9.70;;
67162;SDS011;54092;53.088;8.850;2023-03-01T15:47:47;18.05;;;9.02;;
67162;SDS011;54092;53.088;8.850;2023-03-01T15:50:16;23.80;;;10.57;;
67162;SDS011;54092;53.088;8.850;2023-03-01T15:52:45;19.63;;;9.50;;
67162;SDS011;54092;53.088;8.850;2023-03-01T15:57:45;20.63;;;9.20;;
67162;SDS011;54092;53.088;8.850;2023-03-01T16:00:11;19.95;;;9.32;;
67162;SDS011;54092;53.088;8.850;2023-03-01T16:02:38;16.63;;;8.98;;
67162;SDS011;54092;53.088;8.850;2023-03-01T16:05:05;18.05;;;9.02;;
67162;SDS011;54092;53.088;8.850;2023-03-01T16:07:38;18.13;;;9.23;;
67162;SDS011;54092;53.088;8.850;2023-03-01T16:10:04;18.00;;;8.52;;
67162;SDS011;54092;53.088;8.850;2023-03-01T16:12:30;18.90;;;9.75;;
67162;SDS011;54092;53.088;8.850;2023-03-01T16:14:55;18.13;;;9.02;;
67162;SDS011;54092;53.088;8.850;2023-03-01T16:17:22;23.17;;;9.95;;
67162;SDS011;54092;53.088;8.850;2023-03-01T16:19:48;21.23;;;9.73;;